createdAt,value
2023-02-22T00:01:51.265Z,2.50
2023-02-22T00:06:55.313Z,2.20
2023-02-22T00:11:58.952Z,2.50
2023-02-22T00:17:01.429Z,2.50
2023-02-22T00:22:05.252Z,2.50
2023-02-22T00:27:07.581Z,2.30
2023-02-22T00:32:09.685Z,2.20
2023-02-22T00:37:13.585Z,1.90
2023-02-22T00:42:16.124Z,1.80
2023-02-22T00:47:18.125Z,1.70
2023-02-22T00:52:21.562Z,1.90
2023-02-22T00:57:23.759Z,1.70
2023-02-22T01:02:26.029Z,1.70
2023-02-22T01:07:29.863Z,1.80
2023-02-22T01:12:32.382Z,1.90
2023-02-22T01:17:34.622Z,1.80
2023-02-22T01:22:38.737Z,1.60
2023-02-22T01:27:40.927Z,1.40
2023-02-22T01:32:43.813Z,1.30
2023-02-22T01:37:47.453Z,1.40
2023-02-22T01:42:52.474Z,1.50
2023-02-22T01:47:54.598Z,1.50
2023-02-22T01:52:58.515Z,1.30
2023-02-22T01:58:01.245Z,1.20
2023-02-22T02:03:06.634Z,1.00
2023-02-22T02:08:18.431Z,0.90
2023-02-22T02:13:21.337Z,0.90
2023-02-22T02:18:24.220Z,0.80
2023-02-22T02:24:11.263Z,0.70
2023-02-22T02:29:57.874Z,0.50
2023-02-22T02:35:08.090Z,0.50
2023-02-22T02:40:18.931Z,0.50
2023-02-22T02:45:26.233Z,0.50
2023-02-22T02:50:34.949Z,0.50
2023-02-22T02:55:38.555Z,0.70
2023-02-22T03:00:43.358Z,0.60
2023-02-22T03:06:29.514Z,0.50
2023-02-22T03:11:41.426Z,0.30
2023-02-22T03:16:47.942Z,0.30
2023-02-22T03:21:58.497Z,0.20
2023-02-22T03:27:04.159Z,0.10
2023-02-22T03:32:11.933Z,0.10
2023-02-22T03:37:19.276Z,0.10
2023-02-22T03:42:25.402Z,0.10
2023-02-22T03:47:36.460Z,-0.10
2023-02-22T03:52:40.974Z,-0.20
2023-02-22T03:57:47.636Z,0.00
2023-02-22T04:02:49.760Z,0.10
2023-02-22T04:07:53.420Z,0.00
2023-02-22T04:12:55.883Z,0.00
2023-02-22T04:17:58.166Z,-0.20
2023-02-22T04:23:01.543Z,-0.40
2023-02-22T04:28:04.193Z,-0.30
2023-02-22T04:33:05.994Z,-0.40
2023-02-22T04:38:10.975Z,-0.40
2023-02-22T04:43:12.944Z,-0.40
2023-02-22T04:48:15.430Z,-0.30
2023-02-22T04:53:19.262Z,-0.50
2023-02-22T04:58:22.091Z,-0.50
2023-02-22T05:03:24.632Z,-0.50
2023-02-22T05:08:28.163Z,-0.60
2023-02-22T05:13:30.573Z,-0.50
2023-02-22T05:18:32.380Z,-0.40
2023-02-22T05:23:35.792Z,-0.30
2023-02-22T05:28:38.021Z,-0.30
2023-02-22T05:33:40.568Z,-0.40
2023-02-22T05:38:45.046Z,-0.30
2023-02-22T05:43:49.320Z,-0.20
2023-02-22T05:49:09.184Z,0.00
2023-02-22T05:54:13.079Z,0.10
2023-02-22T05:59:15.048Z,0.10
2023-02-22T06:04:18.210Z,0.10
2023-02-22T06:09:22.063Z,0.00
2023-02-22T06:14:24.554Z,0.00
2023-02-22T06:19:27.162Z,0.10
2023-02-22T06:24:30.878Z,0.40
2023-02-22T06:29:33.034Z,0.40
2023-02-22T06:34:35.248Z,0.40
2023-02-22T06:39:38.672Z,0.50
2023-02-22T06:44:40.563Z,0.70
2023-02-22T06:49:43.027Z,0.70
2023-02-22T06:54:46.616Z,0.70
2023-02-22T06:59:48.851Z,0.90
2023-02-22T07:04:51.067Z,1.20
2023-02-22T07:09:54.973Z,1.30
2023-02-22T07:14:57.684Z,1.50
2023-02-22T07:19:59.996Z,1.80
2023-02-22T07:25:03.264Z,2.10
2023-02-22T07:30:06.544Z,2.10
2023-02-22T07:35:15.146Z,2.20
2023-02-22T07:40:19.487Z,2.50
2023-02-22T07:45:22.215Z,2.70
2023-02-22T07:50:26.151Z,3.10
2023-02-22T07:55:31.827Z,3.30
2023-02-22T08:00:35.967Z,3.80
2023-02-22T08:05:39.845Z,4.00
2023-02-22T08:10:44.286Z,4.30
2023-02-22T08:15:47.357Z,4.80
2023-02-22T08:20:52.098Z,4.70
2023-02-22T08:25:56.444Z,4.60
2023-02-22T08:30:58.896Z,5.10
2023-02-22T08:36:01.823Z,5.30
2023-02-22T08:41:05.506Z,5.70
2023-02-22T08:46:08.359Z,6.10
2023-02-22T08:51:10.504Z,6.40
2023-02-22T08:56:14.419Z,6.50
2023-02-22T09:01:24.799Z,6.60
2023-02-22T09:06:34.386Z,6.90
2023-02-22T09:11:37.908Z,7.50
2023-02-22T09:16:40.013Z,7.90
2023-02-22T09:21:42.477Z,8.10
2023-02-22T09:26:53.583Z,8.30
2023-02-22T09:31:57.817Z,8.40
2023-02-22T09:37:00.031Z,9.10
2023-02-22T09:42:10.854Z,11.10
2023-02-22T09:47:19.340Z,12.20
2023-02-22T09:52:27.936Z,11.80
2023-02-22T09:57:35.975Z,11.30
2023-02-22T10:02:45.635Z,12.30
2023-02-22T10:07:55.040Z,14.30
2023-02-22T10:13:07.245Z,13.70
2023-02-22T10:18:33.988Z,12.90
2023-02-22T10:23:42.988Z,13.00
2023-02-22T10:28:55.449Z,15.00
2023-02-22T10:34:02.234Z,16.40
2023-02-22T10:39:18.026Z,17.20
2023-02-22T10:44:21.395Z,16.40
2023-02-22T10:49:26.027Z,16.70
2023-02-22T10:54:32.984Z,17.10
2023-02-22T10:59:38.769Z,16.50
2023-02-22T11:04:50.879Z,16.90
2023-02-22T11:09:55.925Z,17.80
2023-02-22T11:15:19.001Z,19.20
2023-02-22T11:20:25.666Z,19.20
2023-02-22T11:25:31.299Z,19.50
2023-02-22T11:30:36.872Z,18.70
2023-02-22T11:35:49.927Z,20.40
2023-02-22T11:41:18.677Z,21.80
2023-02-22T11:46:26.420Z,20.50
2023-02-22T11:51:50.348Z,20.90
2023-02-22T11:56:56.024Z,20.90
2023-02-22T12:02:05.315Z,21.30
2023-02-22T12:07:25.421Z,22.00
2023-02-22T12:12:37.192Z,21.50
2023-02-22T12:17:59.998Z,22.30
2023-02-22T12:23:14.312Z,21.00
2023-02-22T12:28:25.051Z,24.10
2023-02-22T12:33:32.876Z,23.40
2023-02-22T12:38:41.426Z,25.00
2023-02-22T12:43:48.454Z,25.20
2023-02-22T12:48:56.041Z,25.50
2023-02-22T12:54:07.745Z,25.30
2023-02-22T12:59:19.472Z,25.00
2023-02-22T13:04:23.472Z,22.40
2023-02-22T13:10:01.740Z,20.90
2023-02-22T13:15:13.607Z,20.10
2023-02-22T13:20:24.483Z,21.10
2023-02-22T13:25:34.845Z,21.00
2023-02-22T13:30:40.397Z,19.50
2023-02-22T13:36:08.800Z,20.20
2023-02-22T13:41:44.764Z,21.40
2023-02-22T13:47:39.465Z,23.20
2023-02-22T13:52:44.444Z,24.10
2023-02-22T13:57:50.028Z,22.70
2023-02-22T14:03:02.543Z,23.00
2023-02-22T14:08:06.931Z,22.30
2023-02-22T14:13:09.395Z,22.80
2023-02-22T14:18:18.440Z,22.60
2023-02-22T14:23:36.057Z,22.70
2023-02-22T14:28:42.506Z,21.60
2023-02-22T14:34:10.554Z,20.00
2023-02-22T14:39:21.183Z,19.10
2023-02-22T14:44:29.347Z,18.30
2023-02-22T14:49:37.428Z,17.40
2023-02-22T14:55:04.580Z,16.70
2023-02-22T15:00:20.285Z,16.30
2023-02-22T15:05:22.346Z,15.60
2023-02-22T15:10:30.545Z,15.50
2023-02-22T15:15:33.109Z,15.30
2023-02-22T15:20:38.579Z,15.60
2023-02-22T15:25:48.485Z,16.80
2023-02-22T15:30:50.463Z,17.90
2023-02-22T15:35:57.312Z,17.10
2023-02-22T15:41:08.572Z,16.90
2023-02-22T15:46:11.201Z,17.00
2023-02-22T15:51:17.291Z,16.20
2023-02-22T15:56:27.328Z,15.40
2023-02-22T16:01:29.913Z,14.90
2023-02-22T16:06:35.548Z,14.50
2023-02-22T16:11:43.501Z,14.30
2023-02-22T16:16:45.834Z,13.90
2023-02-22T16:21:58.531Z,13.70
2023-02-22T16:27:09.455Z,13.20
2023-02-22T16:32:12.126Z,12.60
2023-02-22T16:37:24.302Z,12.10
2023-02-22T16:42:28.893Z,11.80
2023-02-22T16:47:31.874Z,11.50
2023-02-22T16:52:34.340Z,11.30
2023-02-22T16:57:40.685Z,10.80
2023-02-22T17:02:45.206Z,10.40
2023-02-22T17:07:49.572Z,10.00
2023-02-22T17:12:54.600Z,9.80
2023-02-22T17:17:58.920Z,9.60
2023-02-22T17:23:03.970Z,9.50
2023-02-22T17:28:10.690Z,9.30
2023-02-22T17:33:17.337Z,9.30
2023-02-22T17:38:23.666Z,9.20
2023-02-22T17:43:29.652Z,9.00
2023-02-22T17:48:33.460Z,8.90
2023-02-22T17:53:37.135Z,8.90
2023-02-22T17:58:45.478Z,8.80
2023-02-22T18:03:48.814Z,8.60
2023-02-22T18:14:30.225Z,8.20
2023-02-22T18:19:34.057Z,8.30
2023-02-22T18:24:39.164Z,8.30
2023-02-22T18:29:44.326Z,8.20
2023-02-22T18:34:48.867Z,8.00
2023-02-22T18:39:53.337Z,7.90
2023-02-22T18:45:03.475Z,7.70
2023-02-22T18:50:09.651Z,7.60
2023-02-22T18:55:15.506Z,7.50
2023-02-22T19:00:24.919Z,7.50
2023-02-22T19:05:27.686Z,7.40
2023-02-22T19:10:31.399Z,7.40
2023-02-22T19:15:45.832Z,7.40
2023-02-22T19:20:58.481Z,7.50
2023-02-22T19:26:03.507Z,7.50
2023-02-22T19:31:20.475Z,7.30
2023-02-22T19:36:34.071Z,7.10
2023-02-22T19:41:38.991Z,7.20
2023-02-22T19:46:46.198Z,7.50
2023-02-22T19:51:52.472Z,7.60
2023-02-22T19:56:59.199Z,7.80
2023-02-22T20:02:05.795Z,8.10
2023-02-22T20:07:11.164Z,8.10
2023-02-22T20:12:16.311Z,8.10
2023-02-22T20:17:22.175Z,8.20
2023-02-22T20:22:26.963Z,8.10
2023-02-22T20:27:32.020Z,8.20
2023-02-22T20:32:40.362Z,8.20
2023-02-22T20:37:44.616Z,8.20
2023-02-22T20:42:49.545Z,8.20
2023-02-22T20:47:55.293Z,8.20
2023-02-22T20:53:01.351Z,8.00
2023-02-22T20:58:05.895Z,8.00
2023-02-22T21:03:11.611Z,8.10
2023-02-22T21:08:17.412Z,8.10
2023-02-22T21:13:25.358Z,8.10
2023-02-22T21:18:31.058Z,8.10
2023-02-22T21:23:35.940Z,8.20
2023-02-22T21:28:50.896Z,8.20
2023-02-22T21:33:58.087Z,8.20
2023-02-22T21:39:09.230Z,8.20
2023-02-22T21:44:31.860Z,8.10
2023-02-22T21:50:23.889Z,8.10
2023-02-22T21:55:48.698Z,8.00
2023-02-22T22:00:51.222Z,8.00
2023-02-22T22:05:54.964Z,8.00
2023-02-22T22:10:58.382Z,8.00
2023-02-22T22:16:05.057Z,7.80
2023-02-22T22:21:11.494Z,7.90
2023-02-22T22:26:14.141Z,7.80
2023-02-22T22:31:19.672Z,7.90
2023-02-22T22:36:25.044Z,7.90
2023-02-22T22:41:29.101Z,7.90
2023-02-22T22:46:31.872Z,8.00
2023-02-22T22:51:36.141Z,8.00
2023-02-22T22:56:39.579Z,8.00
2023-02-22T23:01:44.931Z,8.00
2023-02-22T23:06:50.893Z,8.10
2023-02-22T23:11:56.669Z,8.10
2023-02-22T23:17:03.747Z,8.00
2023-02-22T23:22:07.597Z,8.00
2023-02-22T23:27:11.005Z,8.00
2023-02-22T23:32:14.408Z,8.10
2023-02-22T23:37:20.907Z,8.20
2023-02-22T23:42:23.263Z,8.20
2023-02-22T23:47:25.462Z,8.10
2023-02-22T23:52:30.089Z,8.00
2023-02-22T23:57:36.953Z,8.10
